Time;durP1;ratioP1;P1;durP2;ratioP2;P2;SDS_P1;SDS_P2;PMS_P1;PMS_P2;Temp;Humidity;BMP_temperature;BMP_pressure;BME280_temperature;BME280_humidity;BME280_pressure;Samples;Min_cycle;Max_cycle;Signal;HPM_P1;HPM_P2
2022/08/22 00:00:22;;;;;;;4.07;2.28;;;20.10;30.00;;;;;;5054990;28;20112;-88
2022/08/22 00:03:17;;;;;;;6.43;2.28;;;20.10;34.00;;;;;;5054806;28;20475;-88
2022/08/22 00:06:03;;;;;;;6.25;2.85;;;20.10;33.70;;;;;;5054837;28;20032;-87
2022/08/22 00:08:48;;;;;;;7.18;2.55;;;20.10;38.20;;;;;;4973710;28;20031;-88
2022/08/22 00:11:31;;;;;;;6.43;2.20;;;20.00;38.10;;;;;;4973489;28;20579;-88
2022/08/22 00:14:09;;;;;;;5.63;2.08;;;20.00;41.90;;;;;;4954124;29;20031;-88
2022/08/22 00:16:51;;;;;;;3.83;2.38;;;20.10;37.60;;;;;;4971045;28;20499;-88
2022/08/22 00:19:34;;;;;;;5.43;2.40;;;20.00;40.30;;;;;;4973625;28;20035;-88
2022/08/22 00:22:14;;;;;;;3.67;2.42;;;20.00;31.10;;;;;;4973823;28;20117;-88
2022/08/22 00:25:07;;;;;;;4.82;2.10;;;20.10;29.50;;;;;;4973319;28;20113;-88
2022/08/22 00:27:51;;;;;;;4.75;2.20;;;20.10;32.50;;;;;;4964447;28;20473;-88
2022/08/22 00:30:18;;;;;;;6.05;2.58;;;20.10;37.20;;;;;;4953959;28;20520;-88
2022/08/22 00:32:51;;;;;;;5.65;2.40;;;20.10;35.80;;;;;;4954176;29;20043;-88
2022/08/22 00:35:42;;;;;;;4.68;2.08;;;20.20;43.10;;;;;;4954240;29;20476;-88
2022/08/22 00:38:29;;;;;;;5.80;2.58;;;20.20;23.80;;;;;;4953918;28;20055;-87
2022/08/22 00:41:16;;;;;;;6.88;2.20;;;20.20;24.50;;;;;;4953502;29;20500;-87
2022/08/22 00:44:00;;;;;;;5.30;2.40;;;20.10;23.40;;;;;;4953981;29;20102;-87
2022/08/22 00:46:38;;;;;;;5.68;2.33;;;20.10;22.90;;;;;;5021051;28;20041;-88
2022/08/22 00:49:10;;;;;;;6.38;2.40;;;20.10;24.70;;;;;;5033916;28;20040;-88
2022/08/22 00:52:13;;;;;;;4.22;2.50;;;20.10;20.70;;;;;;5033921;28;20385;-87
2022/08/22 00:54:58;;;;;;;5.10;2.40;;;19.90;19.10;;;;;;5033714;28;20090;-88
2022/08/22 00:58:24;;;;;;;4.10;2.47;;;19.60;23.00;;;;;;5034044;28;20040;-88
2022/08/22 01:00:57;;;;;;;6.07;2.47;;;19.50;25.30;;;;;;4934533;29;20673;-88
2022/08/22 01:03:45;;;;;;;6.05;2.47;;;19.60;22.10;;;;;;4934573;29;20075;-88
2022/08/22 01:06:30;;;;;;;7.18;2.50;;;19.50;23.30;;;;;;4934337;29;20100;-88
2022/08/22 01:09:03;;;;;;;4.43;2.30;;;19.50;29.50;;;;;;4933964;29;20024;-88
2022/08/22 01:12:00;;;;;;;4.45;2.17;;;19.40;36.60;;;;;;4934234;29;20036;-88
2022/08/22 01:14:26;;;;;;;3.65;2.20;;;19.60;44.90;;;;;;4934161;29;20516;-87
2022/08/22 01:16:59;;;;;;;4.57;2.13;;;19.80;38.60;;;;;;4934118;29;20118;-87
2022/08/22 01:19:56;;;;;;;5.60;2.30;;;19.90;35.10;;;;;;4933986;29;20107;-87
2022/08/22 01:23:00;;;;;;;3.85;2.08;;;20.00;42.40;;;;;;4917404;29;20075;-88
2022/08/22 01:26:03;;;;;;;3.70;1.70;;;20.10;43.70;;;;;;4934080;29;20031;-88
2022/08/22 01:28:50;;;;;;;5.55;2.20;;;20.20;35.30;;;;;;4933185;29;20125;-88
2022/08/22 01:31:37;;;;;;;3.70;1.83;;;20.20;18.70;;;;;;4933924;29;20175;-88
2022/08/22 01:34:27;;;;;;;3.25;2.17;;;20.10;20.80;;;;;;4934009;29;20110;-88
2022/08/22 01:37:08;;;;;;;5.60;2.40;;;20.20;19.30;;;;;;5014419;28;20041;-88
2022/08/22 01:39:49;;;;;;;4.65;1.90;;;20.20;35.90;;;;;;5012638;28;20030;-88
2022/08/22 01:42:48;;;;;;;7.55;2.25;;;20.00;20.90;;;;;;5033105;28;20025;-88
2022/08/22 01:45:41;;;;;;;4.38;2.10;;;19.90;24.60;;;;;;5032968;28;20493;-88
2022/08/22 01:48:15;;;;;;;4.53;2.20;;;19.90;21.60;;;;;;5032961;28;20501;-87
2022/08/22 01:50:56;;;;;;;4.13;2.08;;;19.90;26.00;;;;;;5033040;28;20036;-88
2022/08/22 01:53:28;;;;;;;4.75;1.98;;;19.80;30.20;;;;;;5032605;28;20030;-88
2022/08/22 01:56:08;;;;;;;3.10;2.22;;;19.80;30.20;;;;;;5032936;28;20025;-88
2022/08/22 01:58:42;;;;;;;4.05;2.20;;;19.80;28.50;;;;;;5032799;28;20505;-88
2022/08/22 02:01:33;;;;;;;4.32;2.10;;;19.80;39.60;;;;;;5032785;28;20291;-88
2022/08/22 02:04:05;;;;;;;4.60;2.00;;;19.70;28.50;;;;;;5032927;28;20040;-88
2022/08/22 02:06:58;;;;;;;3.80;2.00;;;19.70;25.90;;;;;;5032350;28;20032;-87
2022/08/22 02:09:57;;;;;;;3.22;2.00;;;19.60;33.10;;;;;;5032540;28;20040;-88
2022/08/22 02:12:42;;;;;;;3.65;2.10;;;19.50;31.30;;;;;;5032661;28;20064;-88
2022/08/22 02:15:44;;;;;;;5.78;2.17;;;19.50;32.00;;;;;;5032521;28;20037;-87
2022/08/22 02:18:16;;;;;;;5.90;1.90;;;19.50;34.30;;;;;;5019350;28;20064;-88
2022/08/22 02:20:54;;;;;;;3.58;2.10;;;19.50;28.20;;;;;;5032339;28;20026;-87
2022/08/22 02:23:26;;;;;;;6.82;2.22;;;19.40;29.20;;;;;;5032603;28;20108;-88
2022/08/22 02:26:01;;;;;;;4.90;1.98;;;19.40;28.40;;;;;;5032497;28;20470;-88
2022/08/22 02:28:47;;;;;;;4.78;2.03;;;19.30;31.90;;;;;;5048653;28;20068;-88
2022/08/22 02:31:24;;;;;;;4.95;1.90;;;19.20;29.60;;;;;;5052415;28;20075;-87
2022/08/22 02:33:55;;;;;;;4.10;2.20;;;19.20;40.30;;;;;;5052468;28;20385;-88
2022/08/22 02:36:33;;;;;;;5.22;2.03;;;19.20;39.10;;;;;;5051958;28;20025;-88
2022/08/22 02:39:17;;;;;;;5.00;2.13;;;19.20;41.70;;;;;;5052381;28;20040;-88
2022/08/22 02:41:51;;;;;;;3.15;1.80;;;19.20;31.40;;;;;;5056112;28;20140;-88
2022/08/22 02:44:24;;;;;;;3.88;2.08;;;19.20;28.40;;;;;;5056357;28;20032;-88
2022/08/22 02:47:11;;;;;;;4.05;2.00;;;19.20;29.30;;;;;;5056312;28;20032;-88
2022/08/22 02:49:51;;;;;;;5.55;2.50;;;19.10;36.60;;;;;;5055863;28;20036;-87
2022/08/22 02:52:25;;;;;;;6.15;2.00;;;19.00;32.50;;;;;;5056211;28;20048;-88
2022/08/22 02:55:02;;;;;;;3.58;1.88;;;19.00;33.80;;;;;;5056126;28;20036;-88
2022/08/22 02:57:42;;;;;;;3.58;2.17;;;19.00;35.00;;;;;;5056078;28;20104;-87
2022/08/22 03:00:26;;;;;;;4.05;1.80;;;18.90;32.00;;;;;;5056085;28;20028;-87
2022/08/22 03:02:51;;;;;;;4.28;1.90;;;18.80;25.30;;;;;;5055876;28;20046;-88
2022/08/22 03:05:27;;;;;;;4.28;2.10;;;18.80;19.60;;;;;;5055591;28;20381;-88
2022/08/22 03:08:13;;;;;;;3.83;2.38;;;18.80;21.60;;;;;;5056000;28;20485;-88
2022/08/22 03:11:01;;;;;;;6.28;2.15;;;18.70;19.50;;;;;;5034656;28;20041;-88
2022/08/22 03:13:48;;;;;;;5.47;2.47;;;18.80;22.10;;;;;;5055586;28;20020;-88
2022/08/22 03:16:35;;;;;;;3.88;2.13;;;18.70;22.20;;;;;;5055805;28;20020;-88
2022/08/22 03:19:12;;;;;;;3.65;2.20;;;18.80;23.00;;;;;;5047887;28;20033;-87
2022/08/22 03:21:59;;;;;;;3.45;2.15;;;18.70;23.30;;;;;;5055597;28;20031;-88
2022/08/22 03:24:40;;;;;;;4.32;2.00;;;18.70;22.20;;;;;;5055613;28;20025;-88
2022/08/22 03:27:17;;;;;;;4.68;2.42;;;18.50;24.10;;;;;;5055237;28;20095;-87
2022/08/22 03:29:49;;;;;;;4.50;2.50;;;18.40;22.10;;;;;;5055229;28;20040;-88
2022/08/22 03:32:18;;;;;;;5.68;2.15;;;18.40;23.70;;;;;;5055385;28;20025;-87
2022/08/22 03:35:00;;;;;;;3.85;2.13;;;18.30;21.90;;;;;;5055147;28;20029;-88
2022/08/22 03:37:37;;;;;;;4.47;2.17;;;18.30;23.40;;;;;;5055274;28;20018;-88
2022/08/22 03:40:03;;;;;;;3.90;1.95;;;18.30;27.00;;;;;;5055317;28;20071;-88
2022/08/22 03:42:43;;;;;;;3.80;2.38;;;18.30;27.20;;;;;;5055140;28;20052;-88
2022/08/22 03:45:30;;;;;;;3.78;2.28;;;18.40;26.10;;;;;;5055215;28;20367;-88
2022/08/22 03:48:17;;;;;;;3.22;2.10;;;18.40;27.50;;;;;;5054857;28;20105;-88
2022/08/22 03:51:04;;;;;;;2.53;2.13;;;18.30;26.60;;;;;;5054587;28;20040;-88
2022/08/22 03:53:52;;;;;;;5.75;2.22;;;18.30;23.60;;;;;;5055050;28;20017;-88
2022/08/22 03:56:30;;;;;;;3.95;2.42;;;18.30;25.10;;;;;;5055089;28;20025;-88
2022/08/22 03:59:33;;;;;;;5.93;2.55;;;18.20;23.90;;;;;;5054933;28;20478;-88
2022/08/22 04:02:29;;;;;;;5.50;2.10;;;18.20;27.50;;;;;;5054502;28;20025;-88
2022/08/22 04:05:24;;;;;;;3.88;2.38;;;18.20;25.00;;;;;;5054805;28;20491;-87
2022/08/22 04:08:31;;;;;;;3.08;2.30;;;18.30;27.70;;;;;;5038954;28;20041;-88
2022/08/22 04:11:20;;;;;;;4.50;2.33;;;18.00;21.50;;;;;;4973736;28;20038;-88
2022/08/22 04:14:05;;;;;;;5.85;2.45;;;17.80;24.20;;;;;;4973649;28;20030;-88
2022/08/22 04:16:58;;;;;;;4.53;2.55;;;17.70;23.80;;;;;;4973440;28;20406;-88
2022/08/22 04:19:40;;;;;;;3.13;2.33;;;17.70;25.10;;;;;;4973716;28;20547;-88
2022/08/22 04:22:14;;;;;;;5.13;2.70;;;17.90;22.70;;;;;;4973792;28;20035;-87
2022/08/22 04:25:02;;;;;;;5.97;2.80;;;17.80;24.10;;;;;;4973795;28;20033;-87
2022/08/22 04:27:47;;;;;;;7.78;2.50;;;17.60;25.80;;;;;;4964979;28;20082;-88
2022/08/22 04:30:54;;;;;;;3.70;2.70;;;17.70;24.80;;;;;;4954058;28;20035;-88
2022/08/22 04:33:44;;;;;;;6.32;2.75;;;17.70;27.40;;;;;;4878546;29;20025;-88
2022/08/22 04:36:28;;;;;;;6.72;2.65;;;17.70;26.40;;;;;;4878469;29;20029;-88
2022/08/22 04:39:05;;;;;;;4.10;2.28;;;17.60;24.90;;;;;;4878205;29;20037;-88
2022/08/22 04:41:47;;;;;;;4.82;2.30;;;17.60;24.00;;;;;;4878343;29;20069;-87
2022/08/22 04:44:22;;;;;;;4.40;2.33;;;17.60;25.10;;;;;;4878313;29;20040;-88
2022/08/22 04:46:56;;;;;;;5.85;2.30;;;17.60;23.40;;;;;;4888692;29;20043;-88
2022/08/22 04:49:44;;;;;;;6.18;2.75;;;17.60;24.60;;;;;;4953825;29;20481;-88
2022/08/22 04:52:34;;;;;;;3.88;1.95;;;17.70;26.00;;;;;;4937538;29;20532;-87
2022/08/22 04:55:14;;;;;;;6.10;2.40;;;17.70;30.00;;;;;;4953661;29;20508;-88
2022/08/22 04:57:51;;;;;;;4.28;2.40;;;17.60;24.90;;;;;;4953658;29;20425;-87
2022/08/22 05:00:17;;;;;;;4.85;2.67;;;17.60;30.00;;;;;;4953413;29;20489;-87
2022/08/22 05:02:49;;;;;;;3.58;2.50;;;17.60;25.30;;;;;;4952856;28;20058;-88
2022/08/22 05:05:20;;;;;;;4.85;2.40;;;17.50;28.00;;;;;;5032575;28;20057;-88
2022/08/22 05:07:53;;;;;;;6.75;2.50;;;17.60;24.50;;;;;;5033619;28;20037;-88
2022/08/22 05:10:26;;;;;;;4.68;2.10;;;17.60;28.50;;;;;;5033475;28;20038;-87
2022/08/22 05:12:57;;;;;;;3.92;2.40;;;17.60;33.90;;;;;;5033478;28;20108;-88
2022/08/22 05:15:46;;;;;;;6.05;2.40;;;17.70;28.30;;;;;;5033389;28;20029;-88
2022/08/22 05:18:18;;;;;;;8.35;2.53;;;17.80;31.00;;;;;;5033426;28;20099;-87
2022/08/22 05:20:47;;;;;;;6.53;2.85;;;17.80;26.20;;;;;;5033529;28;20021;-88
2022/08/22 05:23:23;;;;;;;5.57;2.53;;;17.70;26.00;;;;;;5033521;28;20037;-88
2022/08/22 05:25:51;;;;;;;7.88;3.17;;;17.70;26.70;;;;;;5033346;28;20028;-88
2022/08/22 05:28:33;;;;;;;8.10;2.63;;;17.70;28.20;;;;;;5048273;28;20059;-88
2022/08/22 05:31:02;;;;;;;4.97;2.72;;;17.80;29.50;;;;;;5032969;28;20041;-88
2022/08/22 05:33:36;;;;;;;10.93;2.80;;;17.70;26.30;;;;;;5033176;28;20017;-88
2022/08/22 05:36:10;;;;;;;5.97;2.63;;;17.70;26.00;;;;;;5015451;28;20386;-88
2022/08/22 05:39:09;;;;;;;5.15;2.85;;;17.70;27.60;;;;;;5033072;28;20388;-88
2022/08/22 05:41:37;;;;;;;6.25;2.80;;;17.80;25.80;;;;;;5033019;28;20025;-88
2022/08/22 05:44:13;;;;;;;7.20;2.70;;;17.80;24.40;;;;;;5032817;28;20025;-87
2022/08/22 05:46:44;;;;;;;6.95;2.60;;;17.90;27.40;;;;;;5033139;28;20363;-88
2022/08/22 05:49:27;;;;;;;6.75;2.38;;;18.00;26.00;;;;;;5032926;28;20029;-87
2022/08/22 05:52:28;;;;;;;8.52;2.50;;;18.20;24.60;;;;;;5033000;28;20525;-88
2022/08/22 05:55:28;;;;;;;8.45;2.10;;;18.20;26.50;;;;;;5010490;28;20048;-88
2022/08/22 05:58:32;;;;;;;7.13;2.47;;;18.40;26.20;;;;;;5032529;28;20029;-87
2022/08/22 06:01:46;;;;;;;5.45;2.10;;;18.40;28.40;;;;;;5032784;28;20386;-87
2022/08/22 06:04:19;;;;;;;6.20;2.20;;;18.50;29.40;;;;;;5032776;28;20030;-88
2022/08/22 06:07:02;;;;;;;6.57;2.28;;;18.50;30.00;;;;;;5032726;28;20025;-87
2022/08/22 06:09:42;;;;;;;5.28;2.17;;;18.60;28.20;;;;;;5032555;28;20021;-87
2022/08/22 06:12:19;;;;;;;5.38;2.25;;;18.70;28.70;;;;;;5032375;28;20045;-86
2022/08/22 06:14:59;;;;;;;5.18;1.98;;;18.70;28.10;;;;;;5046018;28;20552;-87
2022/08/22 06:17:34;;;;;;;3.72;2.30;;;18.80;28.60;;;;;;5052514;28;20374;-88
2022/08/22 06:20:04;;;;;;;4.20;2.05;;;18.80;30.00;;;;;;5045055;28;20033;-87
2022/08/22 06:22:44;;;;;;;5.22;2.45;;;18.90;35.80;;;;;;5052444;28;20470;-87
2022/08/22 06:25:15;;;;;;;3.67;2.55;;;18.90;29.10;;;;;;5052608;28;20381;-88
2022/08/22 06:27:44;;;;;;;6.53;2.50;;;19.00;28.40;;;;;;5051751;28;20052;-88
2022/08/22 06:30:14;;;;;;;6.28;2.33;;;19.10;34.50;;;;;;5051943;28;20409;-88
2022/08/22 06:32:44;;;;;;;5.35;2.30;;;19.10;26.50;;;;;;5052464;28;20120;-88
2022/08/22 06:35:21;;;;;;;5.22;2.00;;;19.00;28.00;;;;;;5052395;28;20407;-87
2022/08/22 06:37:48;;;;;;;6.07;1.83;;;19.10;27.80;;;;;;5052345;28;20048;-88
2022/08/22 06:40:16;;;;;;;4.53;2.60;;;19.30;26.50;;;;;;5052166;28;20414;-88
2022/08/22 06:42:47;;;;;;;8.55;2.90;;;19.30;29.90;;;;;;5052097;28;20067;-87
2022/08/22 06:45:29;;;;;;;4.72;2.40;;;19.40;28.70;;;;;;5052294;28;20088;-87
2022/08/22 06:48:10;;;;;;;7.88;2.58;;;19.50;28.70;;;;;;5052252;28;20029;-88
2022/08/22 06:50:39;;;;;;;5.50;2.38;;;19.40;28.90;;;;;;5052189;28;20492;-87
2022/08/22 06:53:15;;;;;;;5.20;2.78;;;19.50;27.20;;;;;;5052151;28;20037;-88
2022/08/22 06:55:46;;;;;;;5.20;2.47;;;19.60;29.50;;;;;;5051848;28;20025;-88
2022/08/22 06:58:19;;;;;;;5.53;2.30;;;19.40;29.00;;;;;;5052114;28;20060;-88
2022/08/22 07:00:50;;;;;;;6.35;2.63;;;19.50;27.80;;;;;;5052097;28;20025;-88
2022/08/22 07:03:32;;;;;;;4.55;2.58;;;19.60;27.90;;;;;;5052114;28;20096;-88
2022/08/22 07:05:58;;;;;;;2.95;2.00;;;19.80;28.90;;;;;;5052072;28;20025;-87
2022/08/22 07:08:27;;;;;;;5.97;2.22;;;19.80;30.90;;;;;;5052022;28;20056;-88
2022/08/22 07:11:14;;;;;;;5.32;2.25;;;19.70;28.20;;;;;;5051546;28;20037;-87
2022/08/22 07:13:46;;;;;;;4.38;2.03;;;19.70;30.90;;;;;;5051758;28;20067;-88
2022/08/22 07:16:12;;;;;;;4.05;2.33;;;19.80;33.20;;;;;;5051827;28;20036;-87
2022/08/22 07:18:49;;;;;;;3.97;1.98;;;19.80;24.60;;;;;;5051925;28;20410;-88
2022/08/22 07:21:46;;;;;;;6.53;2.17;;;19.90;26.40;;;;;;5051943;28;20025;-88
2022/08/22 07:24:28;;;;;;;5.13;2.00;;;20.00;29.70;;;;;;5051831;28;20147;-88
2022/08/22 07:27:14;;;;;;;4.22;2.05;;;20.10;30.80;;;;;;5053466;28;20039;-88
2022/08/22 07:30:08;;;;;;;6.57;2.10;;;20.20;33.60;;;;;;5055344;28;20037;-88
2022/08/22 07:32:58;;;;;;;5.80;2.13;;;20.30;32.00;;;;;;5055517;28;20108;-88
2022/08/22 07:35:28;;;;;;;3.83;1.80;;;20.30;29.50;;;;;;5055302;28;20059;-88
2022/08/22 07:38:17;;;;;;;4.80;2.15;;;20.30;29.80;;;;;;5055315;28;20109;-88
2022/08/22 07:40:48;;;;;;;2.80;1.98;;;20.30;33.60;;;;;;5055144;28;20600;-88
2022/08/22 07:43:29;;;;;;;6.65;2.20;;;20.50;31.90;;;;;;5055377;28;20051;-87
2022/08/22 07:46:10;;;;;;;3.50;1.73;;;20.60;27.60;;;;;;5037338;28;20029;-88
2022/08/22 07:48:48;;;;;;;2.60;1.80;;;20.60;36.10;;;;;;5055137;28;20063;-88
2022/08/22 07:51:24;;;;;;;3.10;2.00;;;20.60;31.50;;;;;;5055065;28;20056;-88
2022/08/22 07:54:01;;;;;;;3.70;2.13;;;20.50;31.40;;;;;;5054772;28;20047;-88
2022/08/22 07:56:34;;;;;;;4.50;2.25;;;20.70;29.50;;;;;;5055088;28;20029;-88
2022/08/22 07:59:08;;;;;;;4.35;2.30;;;20.80;30.70;;;;;;5054983;28;20025;-88
2022/08/22 08:01:34;;;;;;;3.67;1.80;;;20.90;31.10;;;;;;5054964;28;20051;-88
2022/08/22 08:04:06;;;;;;;5.15;1.70;;;20.90;45.30;;;;;;5054900;28;20025;-88
2022/08/22 08:06:33;;;;;;;3.97;1.85;;;21.00;39.00;;;;;;5054820;28;20025;-88
2022/08/22 08:09:00;;;;;;;3.78;2.05;;;21.00;30.40;;;;;;5054504;28;20100;-87
2022/08/22 08:11:32;;;;;;;4.90;2.25;;;21.00;28.00;;;;;;5054687;28;20406;-88
2022/08/22 08:14:04;;;;;;;2.50;1.73;;;21.10;29.20;;;;;;5054678;28;20025;-87
2022/08/22 08:16:41;;;;;;;5.70;2.22;;;21.00;28.90;;;;;;5054667;28;20497;-88
2022/08/22 08:19:09;;;;;;;3.45;2.00;;;21.20;28.70;;;;;;5048015;28;20036;-88
2022/08/22 08:21:41;;;;;;;6.53;2.08;;;21.40;28.00;;;;;;5054548;28;20108;-88
2022/08/22 08:24:13;;;;;;;7.18;1.92;;;21.50;29.80;;;;;;5054154;28;20032;-87
2022/08/22 08:28:32;;;;;;;4.13;1.98;;;21.70;34.20;;;;;;5054300;28;20029;-88
2022/08/22 08:29:29;;;;;;;5.65;2.40;;;21.60;32.10;;;;;;5053960;28;20025;-88
2022/08/22 08:31:57;;;;;;;4.22;2.05;;;21.60;31.20;;;;;;5054407;28;20033;-88
2022/08/22 08:34:25;;;;;;;4.65;2.30;;;21.60;30.20;;;;;;5054402;28;20024;-88
2022/08/22 08:36:59;;;;;;;4.53;2.03;;;21.80;32.20;;;;;;5053849;28;20082;-88
2022/08/22 08:39:41;;;;;;;6.70;2.10;;;21.90;35.90;;;;;;5053277;28;20028;-88
2022/08/22 08:43:26;;;;;;;5.15;2.03;;;21.90;34.10;;;;;;5054227;28;20032;-87
2022/08/22 08:46:00;;;;;;;3.90;2.10;;;22.10;32.90;;;;;;5053799;28;20032;-88
2022/08/22 08:48:50;;;;;;;3.50;1.88;;;21.90;36.10;;;;;;5053946;28;20025;-87
2022/08/22 08:51:43;;;;;;;3.88;2.20;;;22.10;40.60;;;;;;5053933;28;20037;-88
2022/08/22 08:54:50;;;;;;;4.38;2.17;;;22.10;40.00;;;;;;5053961;28;20477;-88
2022/08/22 08:57:46;;;;;;;5.68;2.13;;;22.20;38.90;;;;;;5053857;28;20033;-87
2022/08/22 09:00:16;;;;;;;3.75;2.05;;;22.40;34.70;;;;;;5053810;28;20060;-88
2022/08/22 09:02:51;;;;;;;4.32;1.90;;;22.50;34.60;;;;;;5053842;28;20057;-88
2022/08/22 09:05:24;;;;;;;4.80;2.00;;;22.60;39.00;;;;;;5035746;28;20032;-88
2022/08/22 09:08:08;;;;;;;4.13;1.80;;;22.70;33.30;;;;;;5053380;28;20033;-88
2022/08/22 09:11:15;;;;;;;3.33;1.80;;;22.80;36.00;;;;;;5053548;28;20398;-88
2022/08/22 09:13:59;;;;;;;3.17;1.90;;;22.80;40.00;;;;;;4972411;28;20033;-88
2022/08/22 09:16:43;;;;;;;4.28;2.10;;;22.80;52.10;;;;;;4972441;28;20066;-88
2022/08/22 09:19:17;;;;;;;7.65;2.00;;;22.90;38.00;;;;;;4972677;28;20479;-88
2022/08/22 09:22:04;;;;;;;4.22;2.03;;;23.00;40.40;;;;;;4972263;28;20493;-88
2022/08/22 09:25:01;;;;;;;6.60;2.08;;;23.10;38.40;;;;;;4972414;28;20507;-88
2022/08/22 09:27:46;;;;;;;3.80;1.80;;;23.40;38.80;;;;;;4964355;28;20556;-88
2022/08/22 09:30:15;;;;;;;3.78;2.00;;;23.10;38.50;;;;;;4952941;28;20050;-88
2022/08/22 09:32:55;;;;;;;5.85;1.80;;;23.40;38.10;;;;;;4953044;29;20110;-87
2022/08/22 09:35:21;;;;;;;4.35;1.85;;;23.70;39.30;;;;;;4952903;29;20031;-88
2022/08/22 09:38:11;;;;;;;5.53;2.58;;;23.70;33.90;;;;;;4952947;29;20521;-88
2022/08/22 09:40:54;;;;;;;4.38;2.40;;;23.70;42.00;;;;;;4953044;29;20034;-88
2022/08/22 09:43:33;;;;;;;4.93;2.00;;;23.80;33.30;;;;;;4952806;29;20434;-88
2022/08/22 09:46:17;;;;;;;4.20;1.80;;;24.00;40.90;;;;;;4952930;29;20031;-88
2022/08/22 09:48:56;;;;;;;3.97;2.00;;;24.10;39.70;;;;;;4952683;28;20095;-88
2022/08/22 09:51:37;;;;;;;4.53;2.13;;;24.10;37.00;;;;;;5014530;28;20090;-88
2022/08/22 09:54:22;;;;;;;4.00;1.90;;;24.20;36.90;;;;;;5032927;28;20360;-88
2022/08/22 09:56:55;;;;;;;3.65;2.28;;;24.30;40.60;;;;;;5032785;28;20018;-88
2022/08/22 09:59:26;;;;;;;2.78;1.70;;;24.50;35.40;;;;;;5032946;28;20034;-88
2022/08/22 10:02:16;;;;;;;4.78;1.60;;;24.50;41.20;;;;;;5032883;28;20100;-88
2022/08/22 10:05:10;;;;;;;3.42;2.00;;;24.50;39.30;;;;;;5032473;28;20033;-88
2022/08/22 10:07:44;;;;;;;4.78;1.67;;;24.50;40.50;;;;;;5031970;28;20029;-88
2022/08/22 10:10:46;;;;;;;2.47;1.58;;;24.90;39.50;;;;;;5032664;28;20414;-88
2022/08/22 10:13:15;;;;;;;5.78;2.13;;;24.80;38.30;;;;;;5032524;28;20029;-88
2022/08/22 10:16:00;;;;;;;4.18;1.73;;;24.90;38.30;;;;;;5032634;28;20079;-88
2022/08/22 10:18:47;;;;;;;8.45;1.90;;;25.10;38.30;;;;;;5032548;28;20041;-88
2022/08/22 10:21:17;;;;;;;4.88;1.88;;;25.40;49.60;;;;;;5032626;28;20053;-88
2022/08/22 10:23:47;;;;;;;5.85;1.70;;;26.30;35.10;;;;;;5032287;28;20044;-88
2022/08/22 10:26:28;;;;;;;5.25;1.85;;;29.20;44.50;;;;;;5032482;28;20029;-88
2022/08/22 10:29:15;;;;;;;3.28;1.70;;;33.50;44.30;;;;;;5051988;28;20524;-88
2022/08/22 10:31:52;;;;;;;3.92;1.88;;;35.90;48.00;;;;;;5052303;28;20044;-89
2022/08/22 10:34:27;;;;;;;4.28;1.90;;;37.80;62.70;;;;;;5034156;28;20029;-89
2022/08/22 10:37:31;;;;;;;2.75;1.67;;;38.10;41.30;;;;;;5052274;28;20040;-88
2022/08/22 10:40:02;;;;;;;2.90;1.75;;;39.60;47.40;;;;;;4952087;29;20073;-88
2022/08/22 10:42:37;;;;;;;3.22;1.90;;;40.70;42.70;;;;;;4952217;29;20038;-89
2022/08/22 10:45:34;;;;;;;3.72;1.80;;;41.70;39.30;;;;;;4952299;29;20043;-88
2022/08/22 10:48:09;;;;;;;4.25;2.10;;;41.60;49.10;;;;;;4944271;29;20075;-89
2022/08/22 10:50:39;;;;;;;4.43;1.85;;;41.30;27.90;;;;;;4952067;29;20531;-89
2022/08/22 10:53:32;;;;;;;5.47;2.00;;;41.30;30.20;;;;;;4952090;29;20078;-89
2022/08/22 10:56:21;;;;;;;3.15;1.80;;;41.00;39.50;;;;;;4952119;29;20065;-89
2022/08/22 10:59:01;;;;;;;3.38;1.63;;;41.20;29.30;;;;;;4943320;29;20075;-86
2022/08/22 11:01:34;;;;;;;4.20;1.70;;;41.30;33.50;;;;;;4953635;28;20378;-87
2022/08/22 11:04:00;;;;;;;4.30;1.90;;;41.70;37.20;;;;;;4955548;29;20115;-87
2022/08/22 11:06:35;;;;;;;4.15;2.08;;;41.20;27.00;;;;;;4955656;29;20106;-86
2022/08/22 11:09:24;;;;;;;4.53;1.98;;;42.40;27.90;;;;;;4955749;29;20211;-87
2022/08/22 11:12:09;;;;;;;3.10;1.80;;;43.30;28.90;;;;;;4955691;29;20125;-87
2022/08/22 11:14:50;;;;;;;4.60;1.63;;;44.80;32.20;;;;;;4955418;29;20062;-87
2022/08/22 11:17:21;;;;;;;4.90;2.10;;;45.00;28.40;;;;;;5035234;28;20159;-89
2022/08/22 11:20:25;;;;;;;3.13;1.95;;;43.90;29.30;;;;;;5055821;28;20033;-89
2022/08/22 11:23:02;;;;;;;4.10;1.92;;;44.50;27.70;;;;;;5055643;28;20025;-90
2022/08/22 11:25:59;;;;;;;5.32;1.90;;;44.40;25.00;;;;;;5055652;28;20029;-89
2022/08/22 11:28:50;;;;;;;3.75;1.80;;;45.50;27.70;;;;;;5049216;28;20413;-89
2022/08/22 11:31:31;;;;;;;4.57;1.98;;;45.00;27.00;;;;;;5055105;28;20040;-89
2022/08/22 11:34:09;;;;;;;4.65;2.03;;;44.10;27.10;;;;;;5055448;28;20078;-89
2022/08/22 11:36:40;;;;;;;3.67;1.88;;;44.50;33.90;;;;;;5055326;28;20037;-89
2022/08/22 11:39:11;;;;;;;3.40;1.92;;;44.30;34.80;;;;;;5055239;28;20021;-89
2022/08/22 11:41:45;;;;;;;3.50;1.90;;;44.60;29.30;;;;;;5055187;28;20020;-89
2022/08/22 11:44:31;;;;;;;3.17;1.88;;;46.20;27.30;;;;;;5055281;28;20128;-89
2022/08/22 11:47:00;;;;;;;5.50;2.05;;;46.10;28.10;;;;;;5054863;28;20393;-89
2022/08/22 11:49:47;;;;;;;2.97;1.60;;;45.40;30.00;;;;;;5055187;28;20027;-89
2022/08/22 11:52:40;;;;;;;2.95;1.67;;;45.50;21.40;;;;;;5037273;28;20424;-89
2022/08/22 11:55:18;;;;;;;4.43;1.85;;;44.20;23.40;;;;;;4954842;29;20102;-89
2022/08/22 11:57:48;;;;;;;3.95;1.85;;;43.40;25.50;;;;;;4954875;29;20145;-89
2022/08/22 12:00:25;;;;;;;3.85;2.30;;;43.40;18.90;;;;;;4954478;29;20385;-89
2022/08/22 12:03:18;;;;;;;3.53;2.00;;;45.30;25.20;;;;;;4954815;29;20040;-89
2022/08/22 12:06:02;;;;;;;4.70;1.88;;;45.80;24.30;;;;;;4954575;29;20036;-90
2022/08/22 12:08:34;;;;;;;3.80;2.13;;;44.80;22.30;;;;;;4954616;29;20496;-89
2022/08/22 12:11:36;;;;;;;4.18;1.90;;;46.10;12.20;;;;;;4954527;29;20091;-90
2022/08/22 12:14:14;;;;;;;3.85;1.88;;;46.20;16.70;;;;;;4951220;29;20488;-89
2022/08/22 12:17:05;;;;;;;5.18;2.08;;;44.40;14.70;;;;;;4954255;29;20424;-89
2022/08/22 12:19:53;;;;;;;4.53;1.88;;;44.00;19.50;;;;;;4950764;29;20420;-90
2022/08/22 12:22:42;;;;;;;3.33;1.95;;;45.40;28.50;;;;;;4938295;29;20039;-90
2022/08/22 12:25:27;;;;;;;3.80;1.90;;;45.10;21.20;;;;;;4954407;29;20039;-89
2022/08/22 12:28:28;;;;;;;2.75;1.75;;;45.30;15.60;;;;;;4942679;29;20118;-89
2022/08/22 12:31:12;;;;;;;4.28;1.95;;;45.30;16.60;;;;;;4934619;29;20035;-89
2022/08/22 12:34:01;;;;;;;3.65;1.70;;;45.60;28.60;;;;;;5012196;28;20466;-90
2022/08/22 12:36:43;;;;;;;3.38;1.75;;;43.40;20.30;;;;;;5014557;28;20486;-89
2022/08/22 12:39:31;;;;;;;3.33;1.77;;;44.30;17.60;;;;;;5014573;28;20026;-89
2022/08/22 12:42:21;;;;;;;4.10;1.90;;;45.50;20.50;;;;;;5014483;28;20030;-90
2022/08/22 12:44:55;;;;;;;4.60;1.95;;;45.90;18.40;;;;;;5014154;28;20057;-90
2022/08/22 12:47:31;;;;;;;4.10;1.80;;;46.80;18.60;;;;;;5014713;28;20026;-90
2022/08/22 12:50:15;;;;;;;3.15;2.05;;;46.70;15.10;;;;;;5014380;28;20482;-90
2022/08/22 12:53:14;;;;;;;4.15;2.13;;;46.00;16.10;;;;;;5014346;28;20025;-90
2022/08/22 12:55:55;;;;;;;3.33;1.75;;;45.80;14.50;;;;;;5014154;28;20061;-90
2022/08/22 12:58:27;;;;;;;3.03;1.77;;;45.00;20.60;;;;;;5013846;28;20045;-90
2022/08/22 13:01:00;;;;;;;2.92;1.52;;;45.20;18.00;;;;;;5014106;28;20116;-90
2022/08/22 13:03:34;;;;;;;4.15;1.70;;;45.50;19.30;;;;;;5014144;28;20394;-90
2022/08/22 13:06:20;;;;;;;3.30;1.70;;;45.40;20.50;;;;;;5013973;28;20045;-90
2022/08/22 13:08:46;;;;;;;3.80;1.92;;;45.20;23.40;;;;;;4995406;28;20031;-89
2022/08/22 13:11:14;;;;;;;2.50;1.80;;;44.30;15.30;;;;;;5013807;28;20411;-89
2022/08/22 13:13:48;;;;;;;3.17;1.90;;;44.80;16.00;;;;;;5017944;28;20112;-90
2022/08/22 13:16:18;;;;;;;3.70;1.80;;;43.30;12.50;;;;;;5033530;28;20121;-90
2022/08/22 13:18:56;;;;;;;5.78;2.15;;;43.30;13.20;;;;;;5033552;28;20404;-90
2022/08/22 13:21:30;;;;;;;4.05;2.03;;;44.00;20.50;;;;;;5033511;28;20029;-90
2022/08/22 13:24:03;;;;;;;3.25;1.80;;;44.10;9.30;;;;;;5032837;28;20056;-90
2022/08/22 13:26:30;;;;;;;4.05;1.60;;;43.60;16.40;;;;;;5033414;28;20517;-89
2022/08/22 13:28:58;;;;;;;2.90;1.70;;;43.90;12.30;;;;;;5052834;28;20032;-90
2022/08/22 13:31:28;;;;;;;2.45;1.75;;;43.60;17.10;;;;;;5053145;28;20037;-90
2022/08/22 13:34:06;;;;;;;2.03;1.70;;;43.00;21.90;;;;;;5053202;28;20482;-90
2022/08/22 13:36:44;;;;;;;2.60;1.70;;;42.80;17.40;;;;;;5053117;28;20029;-89
2022/08/22 13:39:13;;;;;;;2.28;1.70;;;43.00;17.70;;;;;;5053198;28;20096;-90
2022/08/22 13:41:51;;;;;;;4.38;1.60;;;42.70;19.60;;;;;;5052742;28;20083;-90
2022/08/22 13:44:28;;;;;;;4.50;1.83;;;43.20;16.90;;;;;;5053048;28;20031;-90
2022/08/22 13:47:03;;;;;;;4.00;1.98;;;43.10;12.50;;;;;;5052886;28;20059;-89
2022/08/22 13:49:48;;;;;;;4.40;1.70;;;41.90;18.80;;;;;;5052955;28;20025;-90
2022/08/22 13:52:29;;;;;;;2.08;1.33;;;40.60;25.30;;;;;;5052954;28;20068;-90
2022/08/22 13:55:04;;;;;;;2.80;1.50;;;40.90;21.90;;;;;;5052691;28;20055;-89
2022/08/22 13:57:46;;;;;;;3.00;1.48;;;41.10;26.30;;;;;;5052414;28;20068;-89